Time;durP1;ratioP1;P1;durP2;ratioP2;P2;SDS_P1;SDS_P2;PMS_P1;PMS_P2;Temp;Humidity;BMP_temperature;BMP_pressure;BME280_temperature;BME280_humidity;BME280_pressure;Samples;Min_cycle;Max_cycle;Signal;HPM_P1;HPM_P2
2024/02/20 00:00:07;;;;;;;4.93;2.73;;;;;;;;;;4988669;28;20582;-83
2024/02/20 00:03:16;;;;;;;11.40;3.47;;;;;;;;;;5000038;28;20214;-83
2024/02/20 00:06:20;;;;;;;6.63;3.00;;;;;;;;;;4999768;28;20186;-83
2024/02/20 00:09:25;;;;;;;5.07;3.23;;;;;;;;;;4988782;28;20217;-83
2024/02/20 00:12:29;;;;;;;6.50;3.27;;;;;;;;;;4999851;28;20178;-84
2024/02/20 00:15:34;;;;;;;6.07;2.93;;;;;;;;;;5000552;28;20570;-83
2024/02/20 00:18:38;;;;;;;7.27;2.70;;;;;;;;;;4999608;28;20179;-84
2024/02/20 00:21:43;;;;;;;9.00;2.83;;;;;;;;;;4988112;28;20175;-85
2024/02/20 00:24:47;;;;;;;6.57;3.00;;;;;;;;;;4988639;28;20546;-84
2024/02/20 00:27:51;;;;;;;9.93;2.97;;;;;;;;;;4988475;28;20186;-85
2024/02/20 00:30:56;;;;;;;5.13;3.10;;;;;;;;;;5000802;28;20178;-84
2024/02/20 00:34:01;;;;;;;8.13;2.80;;;;;;;;;;4988659;28;20182;-84
2024/02/20 00:37:08;;;;;;;6.57;2.63;;;;;;;;;;4999997;28;20186;-84
2024/02/20 00:40:13;;;;;;;7.13;3.20;;;;;;;;;;4999417;28;20213;-84
2024/02/20 00:43:17;;;;;;;5.07;2.77;;;;;;;;;;4988651;28;20210;-84
2024/02/20 00:46:22;;;;;;;6.20;2.67;;;;;;;;;;4987721;28;20182;-84
2024/02/20 00:49:26;;;;;;;9.13;2.87;;;;;;;;;;4988093;28;20222;-83
2024/02/20 00:52:30;;;;;;;5.47;2.63;;;;;;;;;;4999549;28;20179;-84
2024/02/20 00:55:34;;;;;;;7.37;3.00;;;;;;;;;;4999633;28;20190;-84
2024/02/20 00:58:39;;;;;;;4.83;2.60;;;;;;;;;;4987950;28;20615;-84
2024/02/20 01:01:43;;;;;;;6.20;2.80;;;;;;;;;;4987168;28;20182;-84
2024/02/20 01:04:47;;;;;;;8.87;3.13;;;;;;;;;;4987906;28;20186;-84
2024/02/20 01:07:51;;;;;;;5.20;2.90;;;;;;;;;;4998019;28;20531;-84
2024/02/20 01:10:58;;;;;;;6.47;2.80;;;;;;;;;;4998555;28;20638;-83
2024/02/20 01:14:02;;;;;;;7.80;2.90;;;;;;;;;;4986856;28;20174;-83
2024/02/20 01:17:07;;;;;;;5.20;3.53;;;;;;;;;;4998569;28;20209;-83
2024/02/20 01:20:11;;;;;;;5.40;3.10;;;;;;;;;;4975467;28;20226;-84
2024/02/20 01:23:15;;;;;;;6.57;2.80;;;;;;;;;;4997869;28;20578;-83
2024/02/20 01:26:20;;;;;;;7.23;2.50;;;;;;;;;;4986691;28;20182;-84
2024/02/20 01:29:24;;;;;;;4.37;2.80;;;;;;;;;;4986170;28;20213;-83
2024/02/20 01:32:28;;;;;;;4.87;2.43;;;;;;;;;;4986775;28;20178;-83
2024/02/20 01:35:32;;;;;;;5.30;2.50;;;;;;;;;;4975459;28;20178;-83
2024/02/20 01:38:36;;;;;;;5.27;2.53;;;;;;;;;;4997319;28;20178;-83
2024/02/20 01:41:40;;;;;;;3.40;2.40;;;;;;;;;;4985675;28;20639;-84
2024/02/20 01:44:44;;;;;;;4.70;2.23;;;;;;;;;;4997748;28;20178;-85
2024/02/20 01:47:49;;;;;;;4.70;3.00;;;;;;;;;;4997538;28;20186;-83
2024/02/20 01:50:54;;;;;;;3.20;2.57;;;;;;;;;;4997973;28;20182;-84
2024/02/20 01:53:59;;;;;;;4.33;2.60;;;;;;;;;;4996887;28;20655;-84
2024/02/20 01:57:03;;;;;;;5.83;2.73;;;;;;;;;;4995623;28;20198;-83
2024/02/20 02:00:08;;;;;;;6.03;2.93;;;;;;;;;;4997091;28;20222;-84
2024/02/20 02:03:18;;;;;;;4.70;3.07;;;;;;;;;;4997937;28;20202;-84
2024/02/20 02:06:30;;;;;;;3.60;2.37;;;;;;;;;;4997639;28;20182;-84
2024/02/20 02:09:34;;;;;;;3.33;2.43;;;;;;;;;;4996631;28;20214;-83
2024/02/20 02:12:39;;;;;;;5.00;2.77;;;;;;;;;;4985889;28;20178;-83
2024/02/20 02:15:43;;;;;;;3.87;2.50;;;;;;;;;;4985741;28;20206;-83
2024/02/20 02:18:48;;;;;;;2.47;2.03;;;;;;;;;;4998248;28;20586;-83
2024/02/20 02:21:53;;;;;;;3.67;2.03;;;;;;;;;;4986242;28;20190;-83
2024/02/20 02:24:57;;;;;;;3.43;1.90;;;;;;;;;;4998573;28;20175;-83
2024/02/20 02:28:01;;;;;;;5.20;2.30;;;;;;;;;;4997418;28;20186;-84
2024/02/20 02:31:05;;;;;;;3.30;2.07;;;;;;;;;;4986422;28;20178;-83
2024/02/20 02:34:12;;;;;;;5.23;2.07;;;;;;;;;;4997448;28;20179;-83
2024/02/20 02:37:16;;;;;;;7.40;2.20;;;;;;;;;;4985584;28;20182;-83
2024/02/20 02:40:21;;;;;;;2.70;2.17;;;;;;;;;;4996714;28;20218;-83
2024/02/20 02:43:25;;;;;;;4.50;2.37;;;;;;;;;;4986444;28;20214;-83
2024/02/20 02:46:29;;;;;;;3.47;2.40;;;;;;;;;;4986463;28;20646;-85
2024/02/20 02:49:33;;;;;;;3.00;1.90;;;;;;;;;;4997436;28;20218;-86
2024/02/20 02:52:38;;;;;;;3.97;2.47;;;;;;;;;;4974727;28;20178;-82
2024/02/20 02:55:42;;;;;;;4.63;2.50;;;;;;;;;;4997347;28;20183;-85
2024/02/20 02:58:46;;;;;;;4.07;2.20;;;;;;;;;;4996840;28;20194;-86
2024/02/20 03:01:51;;;;;;;3.60;2.20;;;;;;;;;;4996901;28;20639;-84
2024/02/20 03:04:57;;;;;;;3.70;2.07;;;;;;;;;;4997293;28;20174;-85
2024/02/20 03:08:02;;;;;;;5.13;2.80;;;;;;;;;;4985118;28;20190;-85
2024/02/20 03:11:07;;;;;;;4.13;2.40;;;;;;;;;;4985752;28;20178;-84
2024/02/20 03:14:12;;;;;;;4.63;2.70;;;;;;;;;;4997951;28;20186;-84
2024/02/20 03:17:16;;;;;;;5.13;3.03;;;;;;;;;;4997146;28;20218;-85
2024/02/20 03:20:21;;;;;;;6.70;3.40;;;;;;;;;;4998108;28;20301;-84
2024/02/20 03:23:30;;;;;;;4.80;2.97;;;;;;;;;;4997056;28;20214;-86
2024/02/20 03:26:34;;;;;;;5.97;3.00;;;;;;;;;;4985373;28;20187;-85
2024/02/20 03:29:38;;;;;;;6.20;3.03;;;;;;;;;;4996614;28;20222;-84
2024/02/20 03:32:42;;;;;;;5.20;2.77;;;;;;;;;;4996644;28;20183;-84
2024/02/20 03:35:47;;;;;;;3.93;2.80;;;;;;;;;;4986045;28;20186;-84
2024/02/20 03:38:51;;;;;;;5.20;3.10;;;;;;;;;;4996035;28;20217;-85
2024/02/20 03:41:55;;;;;;;3.73;2.93;;;;;;;;;;4997045;28;20182;-85
2024/02/20 03:44:59;;;;;;;4.23;2.87;;;;;;;;;;4997253;28;20543;-84
2024/02/20 03:48:04;;;;;;;4.10;3.00;;;;;;;;;;4985322;28;20178;-84
2024/02/20 03:51:08;;;;;;;8.97;3.30;;;;;;;;;;4996392;28;20187;-86
2024/02/20 03:54:12;;;;;;;4.23;3.00;;;;;;;;;;4996564;28;20178;-84
2024/02/20 03:57:16;;;;;;;6.00;2.97;;;;;;;;;;4985349;28;20547;-86
2024/02/20 04:00:24;;;;;;;5.43;2.67;;;;;;;;;;4996483;28;20217;-85
2024/02/20 04:03:28;;;;;;;5.20;2.83;;;;;;;;;;4995882;28;20276;-86
2024/02/20 04:06:32;;;;;;;5.73;2.97;;;;;;;;;;4996335;28;20186;-85
2024/02/20 04:09:36;;;;;;;5.00;2.50;;;;;;;;;;4984338;28;20214;-85
2024/02/20 04:12:44;;;;;;;5.13;2.67;;;;;;;;;;4996100;28;20190;-83
2024/02/20 04:15:50;;;;;;;5.87;2.73;;;;;;;;;;4994223;28;20210;-84
2024/02/20 04:18:54;;;;;;;6.33;3.07;;;;;;;;;;4983538;28;20218;-84
2024/02/20 04:21:58;;;;;;;6.07;3.00;;;;;;;;;;4999543;28;20182;-86
2024/02/20 04:25:04;;;;;;;6.70;3.30;;;;;;;;;;4996304;28;20210;-86
2024/02/20 04:28:09;;;;;;;5.13;2.90;;;;;;;;;;4986653;28;20183;-87
2024/02/20 04:31:14;;;;;;;3.43;2.70;;;;;;;;;;4986933;28;20179;-87
2024/02/20 04:34:18;;;;;;;4.53;2.90;;;;;;;;;;4997396;28;20182;-87
2024/02/20 04:37:22;;;;;;;3.53;2.37;;;;;;;;;;4986326;28;20187;-87
2024/02/20 04:40:26;;;;;;;3.27;2.20;;;;;;;;;;4986660;28;20218;-87
2024/02/20 04:43:31;;;;;;;4.90;2.60;;;;;;;;;;4997453;28;20214;-87
2024/02/20 04:46:35;;;;;;;4.90;2.67;;;;;;;;;;4986190;28;20182;-87
2024/02/20 04:49:39;;;;;;;3.63;2.53;;;;;;;;;;4974866;28;20686;-87
2024/02/20 04:52:44;;;;;;;3.87;2.07;;;;;;;;;;4997682;28;20571;-87
2024/02/20 04:55:48;;;;;;;2.90;1.73;;;;;;;;;;4997280;28;20182;-86
2024/02/20 04:58:52;;;;;;;3.80;2.20;;;;;;;;;;4997769;28;20218;-88
2024/02/20 05:01:56;;;;;;;2.97;2.00;;;;;;;;;;4997860;28;20182;-86
2024/02/20 05:05:00;;;;;;;3.13;2.13;;;;;;;;;;4997399;28;20214;-87
2024/02/20 05:08:05;;;;;;;4.10;1.80;;;;;;;;;;4985665;28;20186;-87
2024/02/20 05:11:09;;;;;;;4.73;2.20;;;;;;;;;;4985465;28;20194;-87
2024/02/20 05:14:13;;;;;;;3.27;1.87;;;;;;;;;;4996798;28;20179;-87
2024/02/20 05:17:17;;;;;;;3.53;2.20;;;;;;;;;;4997230;28;20582;-87
2024/02/20 05:20:22;;;;;;;5.37;1.90;;;;;;;;;;4985460;28;20222;-87
2024/02/20 05:23:27;;;;;;;2.23;1.60;;;;;;;;;;4985639;28;20210;-88
2024/02/20 05:26:31;;;;;;;5.40;2.00;;;;;;;;;;4996515;28;20178;-87
2024/02/20 05:29:35;;;;;;;3.13;1.90;;;;;;;;;;4985106;28;20218;-87
2024/02/20 05:32:39;;;;;;;4.80;2.27;;;;;;;;;;5066301;28;20190;-87
2024/02/20 05:35:44;;;;;;;3.40;1.93;;;;;;;;;;5087274;28;20643;-85
2024/02/20 05:38:48;;;;;;;5.40;2.50;;;;;;;;;;5086431;28;20183;-84
2024/02/20 05:41:53;;;;;;;3.20;1.90;;;;;;;;;;5098567;28;20182;-84
2024/02/20 05:44:57;;;;;;;3.43;2.30;;;;;;;;;;5099363;28;20659;-83
2024/02/20 05:48:02;;;;;;;2.93;1.93;;;;;;;;;;5098330;28;20187;-84
2024/02/20 05:51:13;;;;;;;3.47;2.30;;;;;;;;;;5099454;28;20540;-85
2024/02/20 05:54:17;;;;;;;4.87;2.57;;;;;;;;;;5099138;28;20167;-84
2024/02/20 05:57:21;;;;;;;4.63;2.80;;;;;;;;;;5098257;28;20187;-85
2024/02/20 06:00:25;;;;;;;4.53;2.67;;;;;;;;;;5098335;28;20218;-85
2024/02/20 06:03:32;;;;;;;6.07;2.83;;;;;;;;;;5097113;28;20183;-86
2024/02/20 06:06:36;;;;;;;4.53;2.33;;;;;;;;;;5098210;28;20179;-84
2024/02/20 06:09:43;;;;;;;4.93;2.90;;;;;;;;;;5097499;28;20594;-85
2024/02/20 06:12:47;;;;;;;6.37;2.83;;;;;;;;;;5098183;28;20182;-84
2024/02/20 06:15:51;;;;;;;4.87;2.53;;;;;;;;;;5097452;28;20206;-84
2024/02/20 06:18:55;;;;;;;5.53;2.90;;;;;;;;;;5085086;28;20210;-85
2024/02/20 06:21:59;;;;;;;8.80;3.37;;;;;;;;;;5085069;28;20178;-85
2024/02/20 06:25:06;;;;;;;5.27;2.93;;;;;;;;;;5085254;28;20563;-85
2024/02/20 06:28:13;;;;;;;5.23;3.03;;;;;;;;;;5096670;28;20175;-84
2024/02/20 06:31:17;;;;;;;4.93;3.13;;;;;;;;;;5085038;28;20178;-85
2024/02/20 06:34:21;;;;;;;5.07;3.17;;;;;;;;;;5096849;28;20175;-84
2024/02/20 06:37:25;;;;;;;5.67;3.23;;;;;;;;;;5098155;28;20183;-84
2024/02/20 06:40:29;;;;;;;6.50;3.20;;;;;;;;;;5098677;28;20210;-84
2024/02/20 06:43:36;;;;;;;4.33;3.20;;;;;;;;;;5097193;28;20179;-85
2024/02/20 06:46:41;;;;;;;4.57;3.07;;;;;;;;;;5097448;28;20631;-85
2024/02/20 06:49:45;;;;;;;8.50;3.83;;;;;;;;;;5096537;28;20218;-85
2024/02/20 06:52:51;;;;;;;14.70;7.27;;;;;;;;;;5085484;28;20547;-85
2024/02/20 06:55:55;;;;;;;21.20;11.23;;;;;;;;;;5097584;28;20631;-84
2024/02/20 06:58:59;;;;;;;11.10;7.00;;;;;;;;;;5097068;28;20214;-84
2024/02/20 07:02:05;;;;;;;25.33;13.97;;;;;;;;;;5095213;28;20175;-86
2024/02/20 07:05:10;;;;;;;29.47;14.77;;;;;;;;;;5085552;28;20214;-84
2024/02/20 07:08:14;;;;;;;29.50;15.37;;;;;;;;;;5097049;28;20179;-84
2024/02/20 07:11:18;;;;;;;14.77;9.17;;;;;;;;;;5096236;28;20178;-85
2024/02/20 07:14:22;;;;;;;18.37;11.13;;;;;;;;;;5083433;28;20175;-85
2024/02/20 07:17:27;;;;;;;17.13;10.50;;;;;;;;;;5095063;28;20206;-85
2024/02/20 07:20:32;;;;;;;23.47;15.80;;;;;;;;;;5083270;28;20214;-86
2024/02/20 07:23:36;;;;;;;11.50;8.67;;;;;;;;;;5094947;28;20198;-86
2024/02/20 07:26:40;;;;;;;13.33;8.10;;;;;;;;;;5095443;28;20178;-86
2024/02/20 07:29:44;;;;;;;7.97;5.70;;;;;;;;;;5095805;28;20218;-84
2024/02/20 07:32:49;;;;;;;8.00;4.23;;;;;;;;;;5083819;28;20178;-86
2024/02/20 07:35:53;;;;;;;4.47;3.13;;;;;;;;;;5096089;28;20179;-84
2024/02/20 07:38:58;;;;;;;6.13;3.70;;;;;;;;;;5083837;28;20214;-85
2024/02/20 07:42:02;;;;;;;6.17;3.80;;;;;;;;;;5094850;28;20531;-83
2024/02/20 07:45:07;;;;;;;7.23;4.77;;;;;;;;;;5095171;28;20207;-84
2024/02/20 07:48:11;;;;;;;10.03;5.90;;;;;;;;;;5095038;28;20183;-85
2024/02/20 07:51:16;;;;;;;7.50;3.80;;;;;;;;;;5094575;28;20175;-85
2024/02/20 07:54:20;;;;;;;4.67;2.70;;;;;;;;;;5097384;28;20179;-85
2024/02/20 07:57:24;;;;;;;3.47;2.53;;;;;;;;;;5075535;28;20182;-83
2024/02/20 08:00:28;;;;;;;3.63;2.17;;;;;;;;;;5098096;28;20682;-84
2024/02/20 08:03:32;;;;;;;3.07;2.50;;;;;;;;;;5098218;28;20183;-85
2024/02/20 08:06:37;;;;;;;4.17;2.47;;;;;;;;;;5098434;28;20171;-84
2024/02/20 08:09:41;;;;;;;3.80;2.13;;;;;;;;;;5098077;28;20222;-84
2024/02/20 08:12:45;;;;;;;4.37;2.20;;;;;;;;;;5086176;28;20632;-85
2024/02/20 08:15:49;;;;;;;4.40;2.60;;;;;;;;;;5097899;28;20198;-85
2024/02/20 08:18:53;;;;;;;7.73;2.33;;;;;;;;;;5099273;28;20214;-86
2024/02/20 08:21:57;;;;;;;6.03;3.07;;;;;;;;;;5086200;28;20183;-84
2024/02/20 08:25:04;;;;;;;6.63;2.80;;;;;;;;;;5098106;28;20602;-84
2024/02/20 08:28:08;;;;;;;8.33;3.10;;;;;;;;;;5098589;28;20179;-83
2024/02/20 08:31:12;;;;;;;6.20;2.90;;;;;;;;;;5086016;28;20179;-86
2024/02/20 08:34:21;;;;;;;4.83;3.00;;;;;;;;;;5098296;28;20186;-85
2024/02/20 08:37:25;;;;;;;18.43;9.57;;;;;;;;;;5086437;28;20175;-85
2024/02/20 08:40:33;;;;;;;9.43;3.80;;;;;;;;;;5086638;28;20218;-85
2024/02/20 08:43:38;;;;;;;7.07;4.30;;;;;;;;;;5098898;28;20179;-85
2024/02/20 08:46:42;;;;;;;6.60;3.80;;;;;;;;;;5098131;28;20174;-87
2024/02/20 08:49:49;;;;;;;9.33;3.50;;;;;;;;;;5073393;28;20219;-87
2024/02/20 08:52:53;;;;;;;10.57;3.77;;;;;;;;;;5074336;28;20183;-85
2024/02/20 08:55:57;;;;;;;12.73;3.60;;;;;;;;;;5085359;28;20623;-85
2024/02/20 08:59:01;;;;;;;5.87;3.03;;;;;;;;;;5074265;28;20218;-83
2024/02/20 09:02:06;;;;;;;10.47;3.23;;;;;;;;;;5097572;28;20627;-85
2024/02/20 09:05:11;;;;;;;6.80;3.50;;;;;;;;;;5098483;28;20202;-85
2024/02/20 09:08:15;;;;;;;8.63;3.17;;;;;;;;;;5099598;28;20516;-84
2024/02/20 09:11:19;;;;;;;9.37;3.60;;;;;;;;;;5085970;28;20179;-85
2024/02/20 09:14:23;;;;;;;7.67;2.97;;;;;;;;;;5030236;22;20239;-89
2024/02/20 09:17:29;;;;;;;7.37;2.67;;;;;;;;;;4987094;28;20183;-88
2024/02/20 09:25:20;;;;;;;12.63;2.37;;;;;;;;;;5035737;28;20228;-91
2024/02/20 09:33:34;;;;;;;8.53;2.87;;;;;;;;;;4994339;28;20223;-90
2024/02/20 09:36:41;;;;;;;11.00;3.00;;;;;;;;;;4956570;29;20184;-90
2024/02/20 09:39:46;;;;;;;8.13;2.10;;;;;;;;;;4944923;29;20176;-89
2024/02/20 09:42:50;;;;;;;5.63;1.97;;;;;;;;;;4955449;29;20223;-89
2024/02/20 09:45:59;;;;;;;8.53;3.00;;;;;;;;;;4966704;28;20239;-89
2024/02/20 09:49:03;;;;;;;18.30;10.87;;;;;;;;;;4954871;29;20187;-90
2024/02/20 09:52:08;;;;;;;13.17;8.20;;;;;;;;;;4955342;29;20184;-89
2024/02/20 09:55:17;;;;;;;8.87;3.60;;;;;;;;;;4955758;29;20180;-90
2024/02/20 09:58:21;;;;;;;10.20;2.83;;;;;;;;;;4955576;29;20179;-90
2024/02/20 10:01:26;;;;;;;12.23;3.83;;;;;;;;;;4954666;29;20192;-89
2024/02/20 10:04:33;;;;;;;17.63;3.30;;;;;;;;;;4954547;29;20223;-89
2024/02/20 10:07:40;;;;;;;12.03;3.17;;;;;;;;;;4955014;29;20180;-89
2024/02/20 10:10:46;;;;;;;15.07;7.27;;;;;;;;;;4955371;29;20180;-89
2024/02/20 10:13:55;;;;;;;11.03;3.63;;;;;;;;;;4955130;29;20227;-90
2024/02/20 10:17:00;;;;;;;8.67;3.27;;;;;;;;;;4954590;29;20172;-89
2024/02/20 10:20:12;;;;;;;13.10;5.40;;;;;;;;;;4954753;29;20184;-88
2024/02/20 10:23:16;;;;;;;15.70;4.43;;;;;;;;;;4955361;29;20219;-88
2024/02/20 10:26:20;;;;;;;11.70;4.17;;;;;;;;;;4966498;28;20220;-88
2024/02/20 10:29:27;;;;;;;16.13;6.07;;;;;;;;;;4955473;29;20192;-87
2024/02/20 10:32:34;;;;;;;10.90;3.90;;;;;;;;;;4955715;29;20219;-89
2024/02/20 10:35:40;;;;;;;12.30;4.77;;;;;;;;;;4955097;29;20180;-88
2024/02/20 10:38:44;;;;;;;12.60;3.80;;;;;;;;;;4955112;29;20183;-87
2024/02/20 10:41:49;;;;;;;8.97;3.00;;;;;;;;;;4954942;29;20183;-88
2024/02/20 10:44:55;;;;;;;7.53;2.87;;;;;;;;;;4955289;29;20632;-88
2024/02/20 10:48:02;;;;;;;24.10;3.80;;;;;;;;;;4965626;28;20184;-88
2024/02/20 10:51:07;;;;;;;8.77;2.50;;;;;;;;;;4954137;29;20183;-88
2024/02/20 10:54:11;;;;;;;9.87;3.37;;;;;;;;;;4954386;29;20219;-88
2024/02/20 10:57:16;;;;;;;15.57;4.07;;;;;;;;;;4954585;29;20188;-88
2024/02/20 11:00:21;;;;;;;11.70;3.93;;;;;;;;;;4954864;29;20636;-86
2024/02/20 11:03:25;;;;;;;17.40;7.63;;;;;;;;;;4954248;29;20222;-88
2024/02/20 11:06:33;;;;;;;11.73;3.90;;;;;;;;;;4943250;29;20215;-87
2024/02/20 11:09:37;;;;;;;14.03;4.50;;;;;;;;;;4956911;29;20179;-85
2024/02/20 11:12:41;;;;;;;9.67;3.70;;;;;;;;;;4966115;28;20230;-85
2024/02/20 11:15:46;;;;;;;8.73;2.40;;;;;;;;;;4966609;28;20540;-85
2024/02/20 11:18:52;;;;;;;10.00;2.50;;;;;;;;;;4955625;29;20188;-86
2024/02/20 11:22:07;;;;;;;10.03;3.10;;;;;;;;;;4955120;29;20632;-85
2024/02/20 11:25:25;;;;;;;10.13;3.20;;;;;;;;;;4954763;29;20184;-86
2024/02/20 11:28:33;;;;;;;11.10;3.53;;;;;;;;;;4954848;29;20533;-86
2024/02/20 11:31:37;;;;;;;7.57;3.10;;;;;;;;;;4954519;29;20187;-85
2024/02/20 11:34:42;;;;;;;12.20;3.57;;;;;;;;;;4954894;29;20188;-86
2024/02/20 11:37:53;;;;;;;14.03;4.13;;;;;;;;;;4943888;29;20180;-86
2024/02/20 11:40:57;;;;;;;8.27;3.67;;;;;;;;;;4954966;29;20180;-85
2024/02/20 11:44:04;;;;;;;13.30;3.83;;;;;;;;;;4954908;29;20219;-86
2024/02/20 11:47:08;;;;;;;12.53;3.87;;;;;;;;;;4954648;29;20207;-86
2024/02/20 11:50:16;;;;;;;15.20;3.53;;;;;;;;;;4943210;29;20187;-84
2024/02/20 11:53:21;;;;;;;8.83;3.40;;;;;;;;;;4955553;29;20219;-84
2024/02/20 11:56:25;;;;;;;9.67;2.97;;;;;;;;;;4954611;29;20184;-84
2024/02/20 11:59:29;;;;;;;9.57;3.40;;;;;;;;;;4954420;29;20180;-85
2024/02/20 12:02:35;;;;;;;11.87;3.20;;;;;;;;;;4954360;29;20223;-84
2024/02/20 12:05:40;;;;;;;9.53;2.57;;;;;;;;;;4953983;29;20211;-84
2024/02/20 12:08:44;;;;;;;7.23;2.67;;;;;;;;;;4965963;28;20183;-84
2024/02/20 12:11:51;;;;;;;11.10;3.27;;;;;;;;;;4965640;28;20188;-85
2024/02/20 12:14:59;;;;;;;8.80;2.67;;;;;;;;;;4953935;29;20192;-86
2024/02/20 12:18:04;;;;;;;7.40;2.20;;;;;;;;;;4955246;29;20183;-85
2024/02/20 12:21:09;;;;;;;9.50;3.27;;;;;;;;;;4957852;29;20188;-86
2024/02/20 12:24:21;;;;;;;7.70;3.00;;;;;;;;;;4942735;29;20223;-86
2024/02/20 12:27:26;;;;;;;9.33;2.90;;;;;;;;;;4953957;29;20212;-87
2024/02/20 12:30:30;;;;;;;10.03;2.40;;;;;;;;;;4942122;29;20183;-86
2024/02/20 12:33:35;;;;;;;8.43;2.47;;;;;;;;;;4964075;28;20219;-87
2024/02/20 12:36:39;;;;;;;7.23;2.03;;;;;;;;;;4953447;29;20188;-87
2024/02/20 12:39:43;;;;;;;7.03;1.87;;;;;;;;;;4964561;28;20188;-87
2024/02/20 12:42:48;;;;;;;5.33;1.80;;;;;;;;;;4955839;29;20224;-87
2024/02/20 12:45:53;;;;;;;6.33;1.50;;;;;;;;;;4955973;29;20220;-87
2024/02/20 12:48:58;;;;;;;3.60;1.67;;;;;;;;;;4944601;29;20184;-87
2024/02/20 12:52:02;;;;;;;4.50;1.33;;;;;;;;;;4945069;29;20525;-87
2024/02/20 12:55:06;;;;;;;4.63;1.60;;;;;;;;;;4945292;29;20636;-87
2024/02/20 12:58:10;;;;;;;6.67;1.37;;;;;;;;;;4944896;29;20184;-85
2024/02/20 13:01:14;;;;;;;7.17;1.90;;;;;;;;;;4959274;29;20180;-85
2024/02/20 13:04:19;;;;;;;8.30;1.87;;;;;;;;;;4958080;29;20224;-85
2024/02/20 13:07:23;;;;;;;3.50;1.30;;;;;;;;;;4956401;29;20215;-85
2024/02/20 13:10:28;;;;;;;4.67;1.37;;;;;;;;;;4944818;29;20636;-85
2024/02/20 13:13:32;;;;;;;7.33;1.70;;;;;;;;;;4966555;28;20231;-86
2024/02/20 13:16:38;;;;;;;3.77;1.50;;;;;;;;;;4955556;29;20540;-85
2024/02/20 13:19:45;;;;;;;5.07;1.60;;;;;;;;;;4956076;29;20180;-85
2024/02/20 13:22:49;;;;;;;8.63;1.60;;;;;;;;;;4955826;29;20215;-85
2024/02/20 13:25:53;;;;;;;4.33;1.90;;;;;;;;;;4956173;29;20216;-85
2024/02/20 13:28:57;;;;;;;6.50;1.80;;;;;;;;;;4966547;28;20188;-85
2024/02/20 13:32:03;;;;;;;4.83;1.40;;;;;;;;;;4969601;28;20183;-86
2024/02/20 13:35:08;;;;;;;8.07;1.80;;;;;;;;;;4956120;29;20191;-85
2024/02/20 13:38:13;;;;;;;5.80;1.87;;;;;;;;;;4958042;29;20180;-85
2024/02/20 13:41:17;;;;;;;6.67;1.43;;;;;;;;;;4956853;29;20184;-85
2024/02/20 13:44:22;;;;;;;5.03;1.23;;;;;;;;;;4966301;28;20218;-85
2024/02/20 13:47:26;;;;;;;3.87;1.53;;;;;;;;;;4944205;29;20695;-85
2024/02/20 13:50:30;;;;;;;4.33;1.40;;;;;;;;;;4966319;28;20184;-86
2024/02/20 13:53:34;;;;;;;8.93;1.67;;;;;;;;;;4965302;28;20227;-88
2024/02/20 13:56:38;;;;;;;6.80;1.57;;;;;;;;;;4943324;29;20176;-89
2024/02/20 13:59:43;;;;;;;7.83;2.40;;;;;;;;;;4954106;29;20180;-88
2024/02/20 14:02:47;;;;;;;7.10;1.80;;;;;;;;;;4953956;29;20227;-89
2024/02/20 14:05:51;;;;;;;5.57;1.80;;;;;;;;;;4943041;29;20183;-87
2024/02/20 14:08:55;;;;;;;8.67;1.77;;;;;;;;;;4942866;29;20640;-86
2024/02/20 14:11:59;;;;;;;5.70;1.70;;;;;;;;;;4964932;28;20538;-87
2024/02/20 14:15:09;;;;;;;12.40;1.87;;;;;;;;;;4954828;29;20633;-87
2024/02/20 14:18:34;;;;;;;6.00;1.83;;;;;;;;;;4953745;29;20180;-88
2024/02/20 14:21:38;;;;;;;5.13;1.73;;;;;;;;;;4943059;29;20518;-87
2024/02/20 14:24:43;;;;;;;7.37;2.17;;;;;;;;;;4954641;29;20188;-88
2024/02/20 14:27:49;;;;;;;8.97;1.77;;;;;;;;;;4954382;29;20219;-88
2024/02/20 14:30:54;;;;;;;6.97;1.70;;;;;;;;;;4954923;29;20533;-86
2024/02/20 14:33:58;;;;;;;6.43;1.80;;;;;;;;;;4965014;28;20223;-87
2024/02/20 14:37:02;;;;;;;6.73;2.30;;;;;;;;;;4943592;29;20180;-87
2024/02/20 14:40:07;;;;;;;3.83;1.50;;;;;;;;;;4955273;29;20187;-87
2024/02/20 14:43:12;;;;;;;7.47;1.97;;;;;;;;;;4954366;29;20565;-86
2024/02/20 14:46:16;;;;;;;6.67;2.23;;;;;;;;;;4954374;29;20211;-87
2024/02/20 14:49:24;;;;;;;8.93;2.50;;;;;;;;;;4954278;29;20572;-87
2024/02/20 14:52:28;;;;;;;14.27;2.33;;;;;;;;;;4954092;29;20636;-86
2024/02/20 14:55:34;;;;;;;11.83;2.70;;;;;;;;;;4954209;29;20188;-86
2024/02/20 14:58:38;;;;;;;5.63;1.70;;;;;;;;;;4953959;29;20636;-87
2024/02/20 15:01:44;;;;;;;10.27;2.37;;;;;;;;;;4942910;29;20179;-87
2024/02/20 15:04:48;;;;;;;5.80;1.63;;;;;;;;;;4964004;28;20180;-86
2024/02/20 15:07:52;;;;;;;8.10;1.87;;;;;;;;;;4953776;29;20553;-86
2024/02/20 15:10:57;;;;;;;5.60;1.90;;;;;;;;;;4964597;28;20287;-86
2024/02/20 15:14:02;;;;;;;6.70;1.57;;;;;;;;;;4954043;29;20235;-86
2024/02/20 15:17:07;;;;;;;6.30;2.20;;;;;;;;;;4942939;29;20637;-87
2024/02/20 15:20:12;;;;;;;8.60;2.30;;;;;;;;;;4954534;29;20184;-87
2024/02/20 15:23:16;;;;;;;8.53;1.70;;;;;;;;;;4942719;29;20219;-87
2024/02/20 15:26:20;;;;;;;7.97;2.03;;;;;;;;;;4954317;29;20179;-87
2024/02/20 15:29:25;;;;;;;3.87;1.67;;;;;;;;;;4953437;29;20175;-87
2024/02/20 15:32:31;;;;;;;6.70;1.70;;;;;;;;;;4952692;29;20179;-87
2024/02/20 15:35:35;;;;;;;6.40;1.87;;;;;;;;;;4963726;28;20192;-87
2024/02/20 15:38:39;;;;;;;8.10;1.90;;;;;;;;;;4952352;29;20180;-87
2024/02/20 15:41:43;;;;;;;7.53;1.97;;;;;;;;;;4963439;28;20180;-87
2024/02/20 15:44:47;;;;;;;6.03;1.50;;;;;;;;;;4952962;29;20231;-87
2024/02/20 15:47:51;;;;;;;9.20;1.80;;;;;;;;;;4953811;29;20207;-87
2024/02/20 15:50:57;;;;;;;7.13;1.47;;;;;;;;;;4952702;29;20184;-86
2024/02/20 15:54:01;;;;;;;6.20;1.73;;;;;;;;;;4953477;29;20215;-87
2024/02/20 15:57:05;;;;;;;5.43;1.60;;;;;;;;;;4963072;28;20180;-87
2024/02/20 16:00:11;;;;;;;8.03;1.80;;;;;;;;;;4952611;29;20183;-86
2024/02/20 16:03:22;;;;;;;9.40;2.03;;;;;;;;;;4952763;29;20219;-86
2024/02/20 16:06:26;;;;;;;3.27;1.40;;;;;;;;;;4952133;29;20545;-87
2024/02/20 16:09:31;;;;;;;5.50;2.07;;;;;;;;;;4952525;29;20648;-87
2024/02/20 16:12:36;;;;;;;7.03;1.93;;;;;;;;;;4941443;29;20227;-87
2024/02/20 16:15:41;;;;;;;7.60;1.30;;;;;;;;;;4953186;29;20180;-87
2024/02/20 16:18:45;;;;;;;8.97;1.93;;;;;;;;;;4944039;29;20556;-87
2024/02/20 16:21:49;;;;;;;7.33;1.80;;;;;;;;;;4966415;28;20184;-87
2024/02/20 16:24:53;;;;;;;5.77;1.77;;;;;;;;;;4966631;28;20179;-87
2024/02/20 16:27:57;;;;;;;4.33;1.70;;;;;;;;;;4955270;29;20207;-85
2024/02/20 16:31:02;;;;;;;6.13;1.60;;;;;;;;;;4945128;29;20180;-87
2024/02/20 16:34:06;;;;;;;6.17;1.70;;;;;;;;;;4955652;29;20567;-86
2024/02/20 16:37:10;;;;;;;7.00;2.03;;;;;;;;;;4966032;28;20175;-87
2024/02/20 16:40:16;;;;;;;6.90;1.87;;;;;;;;;;4944300;29;20184;-86
2024/02/20 16:43:20;;;;;;;6.13;2.20;;;;;;;;;;4954767;29;20219;-87
2024/02/20 16:46:24;;;;;;;11.57;1.80;;;;;;;;;;4955630;29;20175;-87
2024/02/20 16:49:30;;;;;;;5.63;1.43;;;;;;;;;;4954859;29;20533;-87
2024/02/20 16:52:35;;;;;;;12.30;1.90;;;;;;;;;;4954439;29;20560;-86
2024/02/20 16:55:39;;;;;;;7.37;2.13;;;;;;;;;;4954942;29;20183;-86
2024/02/20 16:58:43;;;;;;;9.40;2.47;;;;;;;;;;4943435;29;20175;-86
2024/02/20 17:01:48;;;;;;;5.60;2.00;;;;;;;;;;4955149;29;20183;-87
2024/02/20 17:04:52;;;;;;;7.60;2.20;;;;;;;;;;4944200;29;20188;-87
2024/02/20 17:07:57;;;;;;;5.93;1.93;;;;;;;;;;4954795;29;20212;-87
2024/02/20 17:11:01;;;;;;;5.10;1.87;;;;;;;;;;4954668;29;20648;-86
2024/02/20 17:14:07;;;;;;;6.07;2.03;;;;;;;;;;4954834;29;20223;-86
2024/02/20 17:17:11;;;;;;;4.80;1.90;;;;;;;;;;4954639;29;20176;-87
2024/02/20 17:20:16;;;;;;;4.07;1.87;;;;;;;;;;4954824;29;20179;-87
2024/02/20 17:23:20;;;;;;;7.83;1.87;;;;;;;;;;4956486;29;20219;-86
2024/02/20 17:26:24;;;;;;;10.33;2.17;;;;;;;;;;4956421;29;20183;-86
2024/02/20 17:29:29;;;;;;;8.23;2.10;;;;;;;;;;4969290;28;20184;-86
2024/02/20 17:32:33;;;;;;;4.83;2.10;;;;;;;;;;4956037;29;20219;-86
2024/02/20 17:35:37;;;;;;;8.87;2.53;;;;;;;;;;4956759;29;20183;-86
2024/02/20 17:38:42;;;;;;;6.13;2.17;;;;;;;;;;4956634;29;20176;-86
2024/02/20 17:41:46;;;;;;;5.73;2.07;;;;;;;;;;4956905;29;20636;-86
2024/02/20 17:44:52;;;;;;;7.57;2.40;;;;;;;;;;4957454;29;20186;-87
2024/02/20 17:47:56;;;;;;;5.23;2.07;;;;;;;;;;4957499;29;20216;-86
2024/02/20 17:51:01;;;;;;;7.07;2.30;;;;;;;;;;4945228;29;20188;-86
2024/02/20 17:54:07;;;;;;;6.20;2.57;;;;;;;;;;4967610;28;20222;-87
2024/02/20 17:57:16;;;;;;;7.50;1.97;;;;;;;;;;4945038;29;20176;-86
2024/02/20 18:00:20;;;;;;;9.20;2.53;;;;;;;;;;4959422;29;20187;-86
2024/02/20 18:03:24;;;;;;;7.00;2.33;;;;;;;;;;4962094;29;20703;-86
2024/02/20 18:06:29;;;;;;;8.27;2.30;;;;;;;;;;4964029;29;20640;-86
2024/02/20 18:09:34;;;;;;;4.97;2.20;;;;;;;;;;4966070;29;20552;-87
2024/02/20 18:12:38;;;;;;;5.23;2.20;;;;;;;;;;4966760;29;20219;-87
2024/02/20 18:15:43;;;;;;;6.63;2.00;;;;;;;;;;4953368;29;20651;-86
2024/02/20 18:18:48;;;;;;;4.87;2.13;;;;;;;;;;4975422;28;20172;-87
2024/02/20 18:21:52;;;;;;;9.40;2.20;;;;;;;;;;4963966;29;20179;-86
2024/02/20 18:24:56;;;;;;;6.60;2.27;;;;;;;;;;4963765;29;20184;-86
2024/02/20 18:28:01;;;;;;;9.00;2.60;;;;;;;;;;4951304;29;20583;-86
2024/02/20 18:31:06;;;;;;;7.17;2.27;;;;;;;;;;4962510;28;20532;-86
2024/02/20 18:34:10;;;;;;;9.07;2.57;;;;;;;;;;4953282;29;20215;-88